createdAt,value
2023-03-15T00:04:54.870Z,1.98
2023-03-15T00:09:54.631Z,1.58
2023-03-15T00:14:51.551Z,1.35
2023-03-15T00:19:48.187Z,1.35
2023-03-15T00:24:45.127Z,1.38
2023-03-15T00:29:41.544Z,1.80
2023-03-15T00:34:37.964Z,1.58
2023-03-15T00:39:37.768Z,1.23
2023-03-15T00:44:34.238Z,1.08
2023-03-15T00:49:30.664Z,1.75
2023-03-15T00:54:27.124Z,1.20
2023-03-15T00:59:23.474Z,2.08
2023-03-15T01:04:19.848Z,1.80
2023-03-15T01:09:16.176Z,1.58
2023-03-15T01:14:12.693Z,1.88
2023-03-15T01:19:09.108Z,2.53
2023-03-15T01:24:05.788Z,2.20
2023-03-15T01:29:02.146Z,2.33
2023-03-15T01:33:59.196Z,1.48
2023-03-15T01:38:55.579Z,1.77
2023-03-15T01:43:51.949Z,2.33
2023-03-15T01:48:51.065Z,2.10
2023-03-15T01:53:53.482Z,3.00
2023-03-15T01:58:52.817Z,2.00
2023-03-15T02:03:59.732Z,1.65
2023-03-15T02:09:01.692Z,2.05
2023-03-15T02:13:59.981Z,1.98
2023-03-15T02:18:56.463Z,1.80
2023-03-15T02:24:05.673Z,2.15
2023-03-15T02:29:02.193Z,3.22
2023-03-15T02:33:59.037Z,3.03
2023-03-15T02:38:56.605Z,4.28
2023-03-15T02:43:55.727Z,4.57
2023-03-15T02:48:54.211Z,5.10
2023-03-15T02:53:50.590Z,6.93
2023-03-15T02:58:47.283Z,7.65
2023-03-15T03:03:45.427Z,10.73
2023-03-15T03:08:42.060Z,9.27
2023-03-15T03:13:38.398Z,11.55
2023-03-15T03:18:37.775Z,12.50
2023-03-15T03:23:35.847Z,12.80
2023-03-15T03:28:33.293Z,9.50
2023-03-15T03:33:29.737Z,12.50
2023-03-15T03:38:26.205Z,12.00
2023-03-15T03:43:22.613Z,12.23
2023-03-15T03:48:18.952Z,12.50
2023-03-15T03:53:15.476Z,11.75
2023-03-15T03:58:12.167Z,11.43
2023-03-15T04:03:09.269Z,10.23
2023-03-15T04:08:05.810Z,10.10
2023-03-15T04:13:03.226Z,9.73
2023-03-15T04:17:59.760Z,9.40
2023-03-15T04:22:56.124Z,8.88
2023-03-15T04:27:59.529Z,9.60
2023-03-15T04:32:58.931Z,9.30
2023-03-15T04:37:55.573Z,9.88
2023-03-15T04:42:55.462Z,11.18
2023-03-15T04:47:53.034Z,9.77
2023-03-15T04:52:50.025Z,9.68
2023-03-15T04:57:46.411Z,8.85
2023-03-15T05:02:43.056Z,8.63
2023-03-15T05:07:39.707Z,8.23
2023-03-15T05:12:36.059Z,9.32
2023-03-15T05:17:33.672Z,7.00
2023-03-15T05:22:30.049Z,8.02
2023-03-15T05:27:26.394Z,7.78
2023-03-15T05:32:26.694Z,6.80
2023-03-15T05:37:24.003Z,7.28
2023-03-15T05:42:25.961Z,7.18
2023-03-15T05:47:23.220Z,7.10
2023-03-15T05:52:19.612Z,7.03
2023-03-15T05:57:16.002Z,7.40
2023-03-15T06:02:12.401Z,7.70
2023-03-15T06:07:08.795Z,7.72
2023-03-15T06:12:05.662Z,7.15
2023-03-15T06:17:02.013Z,7.25
2023-03-15T06:21:58.566Z,7.18
2023-03-15T06:26:56.120Z,7.00
2023-03-15T06:31:53.344Z,6.60
2023-03-15T06:36:49.834Z,7.10
2023-03-15T06:41:46.196Z,7.07
2023-03-15T06:46:42.589Z,6.80
2023-03-15T06:51:39.492Z,6.25
2023-03-15T06:56:37.291Z,6.13
2023-03-15T07:01:33.688Z,6.63
2023-03-15T07:06:30.357Z,6.10
2023-03-15T07:11:26.725Z,5.68
2023-03-15T07:16:23.321Z,5.80
2023-03-15T07:21:20.029Z,5.88
2023-03-15T07:26:16.522Z,5.93
2023-03-15T07:31:13.278Z,5.55
2023-03-15T07:36:09.856Z,6.25
2023-03-15T07:41:07.455Z,5.45
2023-03-15T07:46:03.945Z,5.95
2023-03-15T07:51:00.672Z,5.55
2023-03-15T07:55:57.077Z,6.07
2023-03-15T08:00:57.175Z,5.20
2023-03-15T08:05:53.953Z,5.10
2023-03-15T08:10:50.336Z,4.55
2023-03-15T08:15:47.621Z,5.20
2023-03-15T08:20:44.068Z,4.25
2023-03-15T08:25:41.618Z,4.15
2023-03-15T08:30:38.018Z,5.05
2023-03-15T08:35:34.972Z,4.22
2023-03-15T08:40:31.620Z,4.47
2023-03-15T08:45:27.979Z,3.33
2023-03-15T08:50:25.694Z,4.57
2023-03-15T08:55:22.385Z,5.32
2023-03-15T09:00:22.611Z,4.85
2023-03-15T09:05:21.036Z,3.80
2023-03-15T09:10:17.867Z,3.70
2023-03-15T09:15:15.316Z,3.88
2023-03-15T09:20:18.771Z,3.45
2023-03-15T09:25:15.186Z,3.70
2023-03-15T09:30:12.289Z,3.42
2023-03-15T09:35:12.500Z,3.10
2023-03-15T09:40:33.925Z,3.60
2023-03-15T09:45:59.768Z,3.15
2023-03-15T09:51:08.703Z,2.65
2023-03-15T10:01:14.066Z,2.13
2023-03-15T10:06:19.616Z,5.82
2023-03-15T10:11:31.146Z,2.97
2023-03-15T10:16:46.181Z,2.90
2023-03-15T10:22:06.705Z,2.22
2023-03-15T10:27:15.885Z,3.50
2023-03-15T10:32:18.252Z,2.17
2023-03-15T10:37:14.916Z,1.83
2023-03-15T10:42:24.516Z,3.33
2023-03-15T10:47:24.330Z,1.88
2023-03-15T10:52:31.805Z,2.03
2023-03-15T10:57:34.720Z,2.30
2023-03-15T11:02:31.640Z,2.20
2023-03-15T11:07:28.509Z,1.92
2023-03-15T11:12:27.252Z,1.52
2023-03-15T11:17:28.959Z,0.98
2023-03-15T11:22:25.896Z,1.25
2023-03-15T11:27:24.626Z,1.45
2023-03-15T11:32:24.378Z,1.77
2023-03-15T11:37:25.061Z,1.08
2023-03-15T11:42:29.834Z,0.95
2023-03-15T11:47:35.010Z,1.65
2023-03-15T11:52:32.050Z,2.78
2023-03-15T11:57:28.354Z,1.02
2023-03-15T12:02:26.239Z,0.77
2023-03-15T12:07:25.633Z,0.67
2023-03-15T12:12:25.057Z,0.63
2023-03-15T12:17:24.269Z,0.70
2023-03-15T12:22:20.750Z,1.52
2023-03-15T12:27:20.151Z,0.70
2023-03-15T12:32:18.767Z,0.90
2023-03-15T12:37:27.341Z,1.13
2023-03-15T12:42:29.590Z,0.85
2023-03-15T12:47:52.298Z,1.00
2023-03-15T12:52:53.490Z,0.70
2023-03-15T12:57:53.964Z,0.60
2023-03-15T13:03:04.102Z,1.38
2023-03-15T13:08:23.964Z,1.17
2023-03-15T13:13:37.888Z,0.95
2023-03-15T13:18:47.092Z,1.05
2023-03-15T13:23:49.748Z,1.02
2023-03-15T13:28:49.452Z,0.98
2023-03-15T13:33:50.789Z,0.90
2023-03-15T13:38:50.650Z,0.80
2023-03-15T13:43:48.903Z,0.80
2023-03-15T13:48:47.288Z,0.77
2023-03-15T13:53:49.921Z,0.82
2023-03-15T13:58:48.518Z,0.70
2023-03-15T14:03:53.755Z,0.88
2023-03-15T14:08:54.834Z,0.95
2023-03-15T14:13:54.101Z,0.98
2023-03-15T14:18:52.884Z,0.80
2023-03-15T14:23:49.553Z,0.60
2023-03-15T14:28:54.731Z,0.82
2023-03-15T14:34:06.030Z,1.00
2023-03-15T14:39:02.350Z,0.60
2023-03-15T14:44:04.934Z,0.70
2023-03-15T14:49:01.431Z,1.08
2023-03-15T14:53:59.382Z,0.77
2023-03-15T14:58:55.915Z,0.80
2023-03-15T15:03:58.188Z,0.57
2023-03-15T15:08:59.262Z,0.60
2023-03-15T15:13:56.646Z,0.70
2023-03-15T15:18:53.320Z,0.85
2023-03-15T15:23:58.379Z,0.50
2023-03-15T15:28:56.485Z,0.50
2023-03-15T15:33:56.066Z,1.08
2023-03-15T15:38:52.908Z,0.70
2023-03-15T15:43:49.377Z,0.60
2023-03-15T15:48:45.816Z,0.90
2023-03-15T15:53:42.246Z,1.77
2023-03-15T15:58:41.294Z,1.58
2023-03-15T16:03:37.610Z,3.78
2023-03-15T16:08:38.620Z,1.50
2023-03-15T16:13:34.943Z,1.10
2023-03-15T16:18:32.100Z,0.80
2023-03-15T16:23:28.476Z,0.60
2023-03-15T16:28:25.595Z,0.82
2023-03-15T16:33:21.996Z,0.47
2023-03-15T16:38:26.347Z,0.70
2023-03-15T16:43:22.674Z,0.75
2023-03-15T16:48:19.122Z,0.50
2023-03-15T16:53:15.628Z,0.77
2023-03-15T16:58:18.232Z,2.88
2023-03-15T17:03:16.446Z,1.52
2023-03-15T17:08:17.897Z,1.05
2023-03-15T17:13:16.241Z,0.75
2023-03-15T17:18:17.851Z,1.55
2023-03-15T17:23:14.691Z,1.05
2023-03-15T17:28:11.241Z,1.02
2023-03-15T17:33:07.774Z,0.95
2023-03-15T17:38:06.350Z,0.90
2023-03-15T17:43:04.200Z,0.80
2023-03-15T17:48:01.731Z,1.05
2023-03-15T17:53:01.661Z,1.00
2023-03-15T17:57:57.969Z,1.10
2023-03-15T18:02:56.079Z,1.00
2023-03-15T18:08:00.605Z,1.42
2023-03-15T18:12:57.126Z,1.30
2023-03-15T18:17:53.607Z,1.23
2023-03-15T18:22:50.528Z,1.70
2023-03-15T18:27:48.025Z,1.80
2023-03-15T18:32:44.640Z,1.45
2023-03-15T18:37:41.066Z,1.10
2023-03-15T18:42:37.397Z,2.20
2023-03-15T18:47:33.740Z,1.55
2023-03-15T18:52:30.723Z,1.60
2023-03-15T18:57:27.180Z,1.55
2023-03-15T19:02:23.541Z,1.70
2023-03-15T19:07:19.934Z,2.10
2023-03-15T19:12:16.360Z,1.38
2023-03-15T19:17:12.847Z,1.17
2023-03-15T19:22:09.196Z,1.33
2023-03-15T19:27:05.861Z,1.77
2023-03-15T19:32:02.399Z,1.58
2023-03-15T19:36:58.909Z,1.90
2023-03-15T19:41:55.309Z,1.88
2023-03-15T19:46:52.146Z,2.25
2023-03-15T19:51:48.478Z,1.45
2023-03-15T19:56:45.718Z,1.98
2023-03-15T20:01:42.282Z,1.60
2023-03-15T20:06:39.313Z,2.42
2023-03-15T20:11:35.631Z,1.80
2023-03-15T20:16:31.968Z,2.00
2023-03-15T20:21:29.600Z,2.50
2023-03-15T20:26:25.948Z,1.90
2023-03-15T20:31:23.068Z,2.35
2023-03-15T20:36:19.481Z,2.40
2023-03-15T20:41:18.151Z,2.10
2023-03-15T20:46:16.668Z,1.88
2023-03-15T20:51:13.045Z,2.53
2023-03-15T20:56:09.514Z,2.17
2023-03-15T21:01:08.626Z,1.98
2023-03-15T21:06:05.990Z,2.30
2023-03-15T21:11:04.562Z,1.85
2023-03-15T21:16:03.904Z,1.98
2023-03-15T21:21:03.500Z,1.85
2023-03-15T21:26:05.592Z,2.00
2023-03-15T21:31:02.001Z,2.38
2023-03-15T21:35:59.756Z,2.35
2023-03-15T21:40:59.659Z,2.00
2023-03-15T21:46:01.393Z,3.25
2023-03-15T21:50:58.016Z,2.53
2023-03-15T21:55:58.614Z,2.40
2023-03-15T22:00:58.970Z,2.08
2023-03-15T22:05:55.552Z,3.20
2023-03-15T22:10:56.981Z,2.45
2023-03-15T22:15:53.836Z,1.88
2023-03-15T22:20:51.485Z,2.70
2023-03-15T22:25:48.362Z,2.67
2023-03-15T22:30:47.319Z,2.72
2023-03-15T22:40:40.930Z,2.60
2023-03-15T22:45:37.331Z,2.25
2023-03-15T22:50:33.739Z,2.55
2023-03-15T22:55:30.083Z,2.88
2023-03-15T23:00:26.826Z,2.70
2023-03-15T23:05:23.819Z,2.33
2023-03-15T23:10:20.204Z,2.55
2023-03-15T23:15:16.751Z,3.05
2023-03-15T23:20:16.407Z,2.67
2023-03-15T23:25:14.273Z,2.40
2023-03-15T23:30:11.527Z,2.25
2023-03-15T23:35:09.995Z,2.42
2023-03-15T23:40:15.391Z,2.30
2023-03-15T23:45:13.031Z,2.40
2023-03-15T23:50:10.771Z,2.53
2023-03-15T23:55:07.755Z,2.28
